Time;durP1;ratioP1;P1;durP2;ratioP2;P2;SDS_P1;SDS_P2;PMS_P1;PMS_P2;Temp;Humidity;BMP_temperature;BMP_pressure;BME280_temperature;BME280_humidity;BME280_pressure;Samples;Min_cycle;Max_cycle;Signal;HPM_P1;HPM_P2
2024/01/28 00:00:54;;;;;;;15.10;14.60;;;;;;;-141.02;100.00;81275.25;5112735;28;20586;-71
2024/01/28 00:03:24;;;;;;;15.23;14.73;;;;;;;-141.02;100.00;81275.25;5112715;28;20579;-71
2024/01/28 00:05:55;;;;;;;13.03;12.63;;;;;;;-141.02;100.00;81026.72;5112937;28;20235;-72
2024/01/28 00:08:25;;;;;;;13.67;13.17;;;;;;;-141.02;100.00;81026.72;5112878;28;20253;-72
2024/01/28 00:11:23;;;;;;;13.43;13.03;;;;;;;-141.02;100.00;81026.72;5112614;28;20280;-72
2024/01/28 00:13:51;;;;;;;12.73;12.33;;;;;;;-141.02;100.00;80778.25;5112579;28;20662;-72
2024/01/28 00:16:20;;;;;;;12.33;11.93;;;;;;;-141.02;100.00;80778.25;5112863;28;20655;-71
2024/01/28 00:18:47;;;;;;;13.77;13.37;;;;;;;-141.02;100.00;80529.75;5112448;28;20235;-72
2024/01/28 00:21:14;;;;;;;15.97;15.47;;;;;;;-141.02;100.00;80778.25;5112774;28;20197;-72
2024/01/28 00:23:42;;;;;;;13.53;13.13;;;;;;;-141.02;100.00;81026.72;5112823;28;20550;-71
2024/01/28 00:26:10;;;;;;;12.10;11.70;;;;;;;-141.02;100.00;81026.72;5112168;28;20189;-72
2024/01/28 00:28:37;;;;;;;11.30;11.00;;;;;;;-141.02;100.00;81026.72;5112631;28;20219;-71
2024/01/28 00:31:10;;;;;;;11.20;10.90;;;;;;;-141.02;100.00;81275.25;5112425;28;20201;-70
2024/01/28 00:33:46;;;;;;;11.47;11.17;;;;;;;-141.02;100.00;81772.31;5112680;28;20272;-71
2024/01/28 00:39:35;;;;;;;12.10;11.70;;;;;;;-141.02;100.00;82020.88;5112352;28;20211;-72
2024/01/28 00:42:03;;;;;;;12.03;11.63;;;;;;;-141.02;100.00;82269.47;5112253;28;20193;-71
2024/01/28 00:44:30;;;;;;;12.23;11.83;;;;;;;-141.02;100.00;82269.47;5111982;28;20311;-71
2024/01/28 00:46:59;;;;;;;11.27;10.97;;;;;;;-141.02;100.00;82020.88;5112421;28;20655;-70
2024/01/28 00:49:29;;;;;;;11.23;10.93;;;;;;;-141.02;100.00;82269.47;5112187;28;20288;-71
2024/01/28 00:51:57;;;;;;;12.90;12.50;;;;;;;-141.02;100.00;82269.47;5112196;28;20242;-70
2024/01/28 00:54:24;;;;;;;13.23;12.83;;;;;;;-141.02;100.00;82269.47;5112138;28;20189;-70
2024/01/28 00:56:52;;;;;;;11.00;10.70;;;;;;;-141.02;100.00;82518.06;5112120;28;20686;-70
2024/01/28 00:59:19;;;;;;;10.60;10.30;;;;;;;-141.02;100.00;82766.69;5112058;28;20228;-71
2024/01/28 01:01:52;;;;;;;10.87;10.57;;;;;;;-141.02;100.00;83263.97;5112363;28;20687;-71
2024/01/28 01:04:23;;;;;;;10.23;9.93;;;;;;;-141.02;100.00;83512.63;5112167;28;20227;-70
2024/01/28 01:06:50;;;;;;;10.70;10.40;;;;;;;-141.02;100.00;83512.63;5112332;28;20250;-70
2024/01/28 01:09:24;;;;;;;11.20;10.90;;;;;;;-141.02;100.00;83761.31;5112059;28;20259;-70
2024/01/28 01:11:54;;;;;;;11.40;11.10;;;;;;;-141.02;100.00;83761.31;5111998;28;20193;-72
2024/01/28 01:14:21;;;;;;;11.83;11.43;;;;;;;-141.02;100.00;84010.03;5112330;28;20193;-71
2024/01/28 01:16:54;;;;;;;12.00;11.60;;;;;;;-141.02;100.00;84010.03;5111984;28;20553;-70
2024/01/28 01:19:23;;;;;;;11.50;11.20;;;;;;;-141.02;100.00;84258.75;5112224;28;20248;-69
2024/01/28 01:21:53;;;;;;;12.27;11.87;;;;;;;-141.02;100.00;84507.50;5111942;28;20189;-70
2024/01/28 01:24:26;;;;;;;13.20;12.80;;;;;;;-141.02;100.00;84258.75;5111887;28;20576;-70
2024/01/28 01:26:53;;;;;;;14.20;13.70;;;;;;;-141.02;100.00;84507.50;5111873;28;20254;-70
2024/01/28 01:29:23;;;;;;;14.40;13.90;;;;;;;-141.02;100.00;84507.50;5111852;28;20203;-70
2024/01/28 01:31:56;;;;;;;15.37;14.77;;;;;;;-141.02;100.00;84507.50;5112175;28;20190;-71
2024/01/28 01:34:25;;;;;;;14.37;13.87;;;;;;;-141.02;100.00;84507.50;5112159;28;20197;-71
2024/01/28 01:37:01;;;;;;;15.80;15.20;;;;;;;-141.02;100.00;84258.75;5112903;28;20616;-70
2024/01/28 01:39:28;;;;;;;15.50;14.90;;;;;;;-141.02;100.00;84010.03;5115618;28;20317;-72
2024/01/28 01:41:55;;;;;;;15.90;15.30;;;;;;;-141.02;100.00;84258.75;5115772;28;20201;-72
2024/01/28 01:44:26;;;;;;;15.53;14.93;;;;;;;-141.02;100.00;84258.75;5115542;28;20229;-72
2024/01/28 01:46:53;;;;;;;15.87;15.27;;;;;;;-141.02;100.00;84258.75;5115264;28;20201;-70
2024/01/28 01:50:02;;;;;;;18.10;17.40;;;;;;;-141.02;100.00;84258.75;5115213;28;20193;-71
2024/01/28 01:52:31;;;;;;;17.53;16.83;;;;;;;-141.02;100.00;84010.03;5115395;28;20254;-71
2024/01/28 01:55:04;;;;;;;14.53;14.03;;;;;;;-141.02;100.00;84010.03;5115166;28;20743;-69
2024/01/28 01:57:31;;;;;;;15.20;14.67;;;;;;;-141.02;100.00;84010.03;5115072;28;20207;-72
2024/01/28 02:00:05;;;;;;;17.80;17.10;;;;;;;-141.02;100.00;83761.31;5115163;28;20767;-70
2024/01/28 02:02:33;;;;;;;16.83;16.23;;;;;;;-141.02;100.00;84010.03;5115027;28;20239;-70
2024/01/28 02:05:00;;;;;;;14.70;14.20;;;;;;;-141.02;100.00;83761.31;5115274;28;20189;-70
2024/01/28 02:07:27;;;;;;;15.50;14.90;;;;;;;-141.02;100.00;83761.31;5115228;28;20197;-70
2024/01/28 02:09:56;;;;;;;14.70;14.20;;;;;;;-141.02;100.00;83761.31;5114829;28;20334;-70
2024/01/28 02:12:25;;;;;;;17.70;17.00;;;;;;;-141.02;100.00;83761.31;5114964;28;20250;-71
2024/01/28 02:15:04;;;;;;;16.70;16.00;;;;;;;-141.02;100.00;84010.03;5115002;28;20204;-70
2024/01/28 02:17:31;;;;;;;14.80;14.30;;;;;;;-141.02;100.00;83761.31;5114775;28;20189;-71
2024/01/28 02:19:59;;;;;;;15.03;14.43;;;;;;;-141.02;100.00;84010.03;5114625;28;20228;-70
2024/01/28 02:22:29;;;;;;;15.50;14.90;;;;;;;-141.02;100.00;84010.03;5114700;28;20280;-70
2024/01/28 02:24:59;;;;;;;15.07;14.47;;;;;;;-141.02;100.00;84010.03;5114566;28;20189;-71
2024/01/28 02:27:27;;;;;;;14.83;14.33;;;;;;;-141.02;100.00;84258.75;5114478;28;20189;-71
2024/01/28 02:29:54;;;;;;;16.57;15.97;;;;;;;-141.02;100.00;84258.75;5114756;28;20211;-70
2024/01/28 02:32:27;;;;;;;15.87;15.27;;;;;;;-141.02;100.00;84010.03;5114390;28;20227;-70
2024/01/28 02:34:57;;;;;;;14.00;13.50;;;;;;;-141.02;100.00;84010.03;5114711;28;20193;-70
2024/01/28 02:37:26;;;;;;;13.83;13.33;;;;;;;-141.02;100.00;84258.75;5114247;28;20663;-70
2024/01/28 02:40:01;;;;;;;13.93;13.43;;;;;;;-141.02;100.00;84258.75;5114502;28;20320;-70
2024/01/28 02:42:28;;;;;;;13.33;12.93;;;;;;;-141.02;100.00;84258.75;5114163;28;20192;-70
2024/01/28 02:45:01;;;;;;;19.60;18.80;;;;;;;-141.02;100.00;84010.03;5114148;28;20240;-71
2024/01/28 02:47:28;;;;;;;19.80;19.00;;;;;;;-141.02;100.00;84010.03;5113644;28;20663;-70
2024/01/28 02:49:59;;;;;;;20.70;19.80;;;;;;;-141.02;100.00;84010.03;5114439;28;20209;-70
2024/01/28 02:52:26;;;;;;;21.70;20.70;;;;;;;-141.02;100.00;84010.03;5114314;28;20193;-70
2024/01/28 02:54:53;;;;;;;19.73;18.93;;;;;;;-141.02;100.00;84010.03;5114317;28;20629;-70
2024/01/28 02:57:21;;;;;;;19.30;18.60;;;;;;;-141.02;100.00;84010.03;5113918;28;20200;-71
2024/01/28 03:02:29;;;;;;;21.23;20.43;;;;;;;-141.02;100.00;84010.03;5113691;28;20212;-70
2024/01/28 03:05:02;;;;;;;18.93;18.17;;;;;;;-141.02;100.00;84010.03;5113741;28;20204;-70
2024/01/28 03:07:29;;;;;;;19.33;18.63;;;;;;;-141.02;100.00;84258.75;5114058;28;20294;-70
2024/01/28 03:09:57;;;;;;;19.57;18.77;;;;;;;-141.02;100.00;84258.75;5113684;28;20244;-70
2024/01/28 03:12:31;;;;;;;19.67;18.87;;;;;;;-141.02;100.00;84010.03;5113901;28;20654;-70
2024/01/28 03:15:00;;;;;;;19.33;18.57;;;;;;;-141.02;100.00;84010.03;5113841;28;20218;-70
2024/01/28 03:17:27;;;;;;;19.83;19.03;;;;;;;-141.02;100.00;83512.63;5113546;28;20189;-69
2024/01/28 03:19:57;;;;;;;19.87;19.07;;;;;;;-141.02;100.00;83512.63;5113702;28;20317;-70
2024/01/28 03:22:24;;;;;;;18.13;17.43;;;;;;;-141.02;100.00;83512.63;5113380;28;20197;-70
2024/01/28 03:24:52;;;;;;;22.23;21.33;;;;;;;-141.02;100.00;83512.63;5113412;28;20284;-70
2024/01/28 03:27:19;;;;;;;20.23;19.43;;;;;;;-141.02;100.00;83263.97;5113275;28;20200;-70
2024/01/28 03:29:47;;;;;;;18.97;18.17;;;;;;;-141.02;100.00;83015.31;5113297;28;20648;-70
2024/01/28 03:32:14;;;;;;;18.23;17.53;;;;;;;-141.02;100.00;83015.31;5113282;28;20213;-70
2024/01/28 03:34:42;;;;;;;17.97;17.27;;;;;;;-141.02;100.00;82766.69;5113493;28;20240;-69
2024/01/28 03:37:09;;;;;;;18.60;17.80;;;;;;;-141.02;100.00;82518.06;5113197;28;20670;-69
2024/01/28 03:39:36;;;;;;;18.03;17.33;;;;;;;-141.02;100.00;82269.47;5113085;28;20315;-69
2024/01/28 03:42:03;;;;;;;18.10;17.40;;;;;;;-141.02;100.00;82269.47;5113376;28;20279;-69
2024/01/28 03:44:30;;;;;;;17.07;16.37;;;;;;;-141.02;100.00;82518.06;5113035;28;20225;-69
2024/01/28 03:46:59;;;;;;;17.23;16.53;;;;;;;-141.02;100.00;82269.47;5113330;28;20212;-68
2024/01/28 03:49:27;;;;;;;17.63;16.93;;;;;;;-141.02;100.00;82518.06;5113210;28;20193;-69
2024/01/28 03:51:54;;;;;;;17.90;17.20;;;;;;;-141.02;100.00;82020.88;5112896;28;20246;-69
2024/01/28 03:54:21;;;;;;;16.93;16.23;;;;;;;-141.02;100.00;81772.31;5113171;28;20279;-68
2024/01/28 03:56:48;;;;;;;16.30;15.70;;;;;;;-141.02;100.00;81772.31;5113081;28;20197;-69
2024/01/28 03:59:15;;;;;;;15.80;15.20;;;;;;;-141.02;100.00;81772.31;5112223;28;20221;-68
2024/01/28 04:01:42;;;;;;;15.30;14.80;;;;;;;-141.02;100.00;82020.88;5112681;28;20193;-68
2024/01/28 04:04:11;;;;;;;15.63;15.03;;;;;;;-141.02;100.00;82269.47;5113019;28;20193;-69
2024/01/28 04:06:43;;;;;;;16.93;16.33;;;;;;;-141.02;100.00;82518.06;5112980;28;20196;-68
2024/01/28 04:09:11;;;;;;;15.63;15.13;;;;;;;-141.02;100.00;82518.06;5112687;28;20193;-68
2024/01/28 04:11:38;;;;;;;13.77;13.27;;;;;;;-141.02;100.00;82518.06;5112670;28;20283;-69
2024/01/28 04:14:05;;;;;;;14.73;14.23;;;;;;;-141.02;100.00;82518.06;5112890;28;20242;-68
2024/01/28 04:16:33;;;;;;;11.90;11.50;;;;;;;-141.02;100.00;82518.06;5112663;28;20189;-68
2024/01/28 04:18:59;;;;;;;11.80;11.40;;;;;;;-141.02;100.00;82518.06;5112472;28;20581;-68
2024/01/28 04:21:28;;;;;;;14.57;14.10;;;;;;;-141.02;100.00;82518.06;5112543;28;20196;-68
2024/01/28 04:24:05;;;;;;;15.30;14.80;;;;;;;-141.02;100.00;82269.47;5112767;28;20192;-69
2024/01/28 04:26:32;;;;;;;15.73;15.13;;;;;;;-141.02;100.00;82269.47;5112803;28;20715;-68
2024/01/28 04:29:12;;;;;;;12.30;11.90;;;;;;;-141.02;100.00;81772.31;5112773;28;20197;-69
2024/01/28 04:31:42;;;;;;;12.43;12.03;;;;;;;-141.02;100.00;81523.75;5112419;28;20279;-68
2024/01/28 04:34:09;;;;;;;15.70;15.20;;;;;;;-141.02;100.00;81772.31;5112340;28;20651;-69
2024/01/28 04:36:38;;;;;;;14.87;14.37;;;;;;;-141.02;100.00;81772.31;5112335;28;20236;-69
2024/01/28 04:39:05;;;;;;;15.37;14.87;;;;;;;-141.02;100.00;82269.47;5112544;28;20273;-68
2024/01/28 04:41:32;;;;;;;14.90;14.40;;;;;;;-141.02;100.00;82518.06;5112593;28;20272;-68
2024/01/28 04:43:59;;;;;;;15.23;14.73;;;;;;;-141.02;100.00;82518.06;5112033;28;20287;-67
2024/01/28 04:46:26;;;;;;;14.00;13.50;;;;;;;-141.02;100.00;82518.06;5112574;28;20217;-68
2024/01/28 04:48:53;;;;;;;13.83;13.43;;;;;;;-141.02;100.00;83263.97;5112222;28;20667;-68
2024/01/28 04:51:20;;;;;;;12.67;12.27;;;;;;;-141.02;100.00;83015.31;5112491;28;20205;-68
2024/01/28 04:53:48;;;;;;;14.20;13.80;;;;;;;-141.02;100.00;83015.31;5112140;28;20233;-67
2024/01/28 04:56:15;;;;;;;13.30;12.90;;;;;;;-141.02;100.00;83015.31;5112525;28;20276;-67
2024/01/28 04:58:42;;;;;;;13.47;13.07;;;;;;;-141.02;100.00;83263.97;5112200;28;20193;-67
2024/01/28 05:01:09;;;;;;;13.03;12.63;;;;;;;-141.02;100.00;83015.31;5112420;28;20297;-67
2024/01/28 05:03:36;;;;;;;13.30;12.90;;;;;;;-141.02;100.00;83263.97;5112443;28;20224;-67
2024/01/28 05:06:04;;;;;;;14.53;14.03;;;;;;;-141.02;100.00;83263.97;5112469;28;20229;-67
2024/01/28 05:08:31;;;;;;;14.77;14.27;;;;;;;-141.02;100.00;83263.97;5112496;28;20198;-67
2024/01/28 05:11:00;;;;;;;13.57;13.07;;;;;;;-141.02;100.00;83015.31;5113367;28;20288;-67
2024/01/28 05:13:26;;;;;;;13.27;12.87;;;;;;;-141.02;100.00;83761.31;5116344;28;20204;-66
2024/01/28 05:15:53;;;;;;;12.90;12.50;;;;;;;-141.02;100.00;84258.75;5116206;28;20193;-66
2024/01/28 05:18:20;;;;;;;12.53;12.13;;;;;;;-141.02;100.00;84258.75;5116163;28;20201;-66
2024/01/28 05:20:47;;;;;;;11.60;11.20;;;;;;;-141.02;100.00;84756.25;5115779;28;20235;-66
2024/01/28 05:23:14;;;;;;;12.07;11.67;;;;;;;-141.02;100.00;84010.03;5115812;28;20239;-66
2024/01/28 05:25:41;;;;;;;12.33;11.93;;;;;;;-141.02;100.00;83761.31;5115733;28;20758;-66
2024/01/28 05:28:09;;;;;;;11.70;11.30;;;;;;;-141.02;100.00;83761.31;5115978;28;20280;-66
2024/01/28 05:30:36;;;;;;;12.17;11.77;;;;;;;-141.02;100.00;83761.31;5115658;28;20189;-65
2024/01/28 05:33:04;;;;;;;12.37;11.97;;;;;;;-141.02;100.00;84507.50;5115591;28;20293;-66
2024/01/28 05:35:32;;;;;;;10.90;10.60;;;;;;;-141.02;100.00;84756.25;5115572;28;20602;-65
2024/01/28 05:37:59;;;;;;;11.00;10.70;;;;;;;-141.02;100.00;85751.50;5115800;28;20221;-65
2024/01/28 05:40:26;;;;;;;9.77;9.47;;;;;;;-141.02;100.00;86747.00;5115333;28;20720;-65
2024/01/28 05:42:53;;;;;;;9.73;9.43;;;;;;;-141.02;100.00;88738.88;5115405;28;20289;-65
2024/01/28 05:45:21;;;;;;;10.00;9.70;;;;;;;-141.02;100.00;89486.16;5115019;28;20237;-65
2024/01/28 05:47:48;;;;;;;8.83;8.63;;;;;;;-141.02;100.00;89984.41;5115697;28;20278;-64
2024/01/28 05:50:15;;;;;;;8.70;8.50;;;;;;;-141.02;100.00;89984.41;5115338;28;20197;-64
2024/01/28 05:52:42;;;;;;;8.30;8.10;;;;;;;-141.02;100.00;90731.94;5115151;28;20651;-65
2024/01/28 05:55:09;;;;;;;8.50;8.30;;;;;;;-141.02;100.00;91230.38;5115219;28;20288;-64
2024/01/28 05:57:36;;;;;;;8.90;8.70;;;;;;;-141.02;100.00;91479.63;5115398;28;20195;-65
2024/01/28 06:00:04;;;;;;;8.60;8.40;;;;;;;-141.02;100.00;91479.63;5115306;28;20233;-65
2024/01/28 06:02:32;;;;;;;8.77;8.57;;;;;;;-141.02;100.00;91479.63;5115358;28;20208;-64
2024/01/28 06:04:59;;;;;;;8.80;8.60;;;;;;;-141.02;100.00;91728.88;5114943;28;20197;-64
2024/01/28 06:07:26;;;;;;;9.70;9.40;;;;;;;-141.02;100.00;91479.63;5114911;28;20279;-65
2024/01/28 06:09:53;;;;;;;8.90;8.70;;;;;;;-141.02;100.00;91728.88;5115135;28;20279;-65
2024/01/28 06:12:20;;;;;;;9.30;9.00;;;;;;;-141.02;100.00;91978.16;5115607;28;20288;-64
2024/01/28 06:14:47;;;;;;;9.17;8.90;;;;;;;-141.02;100.00;92227.47;5115129;28;20233;-64
2024/01/28 06:17:15;;;;;;;8.87;8.67;;;;;;;-141.02;100.00;92227.47;5115046;28;20197;-64
2024/01/28 06:19:44;;;;;;;9.93;9.63;;;;;;;-141.02;100.00;92227.47;5114607;28;20193;-64
2024/01/28 06:22:12;;;;;;;10.30;10.00;;;;;;;-141.02;100.00;92227.47;5113991;28;20576;-64
2024/01/28 06:24:42;;;;;;;10.87;10.57;;;;;;;-141.02;100.00;92227.47;5114382;28;20289;-65
2024/01/28 06:27:09;;;;;;;10.63;10.33;;;;;;;-141.02;100.00;92227.47;5114823;28;20287;-65
2024/01/28 06:29:36;;;;;;;7.47;7.27;;;;;;;-141.02;100.00;92227.47;5114863;28;20197;-64
2024/01/28 06:32:04;;;;;;;8.40;8.20;;;;;;;-141.02;100.00;92476.78;5114715;28;20275;-64
2024/01/28 06:34:31;;;;;;;9.20;9.00;;;;;;;-141.02;100.00;92726.13;5114738;28;20626;-64
2024/01/28 06:36:59;;;;;;;8.83;8.63;;;;;;;-141.02;100.00;92726.13;5114623;28;20193;-65
2024/01/28 06:39:26;;;;;;;9.40;9.10;;;;;;;-141.02;100.00;92726.13;5114610;28;20189;-64
2024/01/28 06:41:53;;;;;;;9.43;9.13;;;;;;;-141.02;100.00;92726.13;5114215;28;20319;-65
2024/01/28 06:44:20;;;;;;;9.73;9.43;;;;;;;-141.02;100.00;92726.13;5114061;28;20238;-65
2024/01/28 06:46:47;;;;;;;10.30;10.00;;;;;;;-141.02;100.00;92476.78;5114142;28;20289;-65
2024/01/28 06:49:14;;;;;;;10.50;10.20;;;;;;;-141.02;100.00;92227.47;5114159;28;20204;-65
2024/01/28 06:51:42;;;;;;;10.60;10.30;;;;;;;-141.02;100.00;92476.78;5114385;28;20322;-65
2024/01/28 06:54:11;;;;;;;10.83;10.53;;;;;;;-141.02;100.00;92726.13;5114073;28;20189;-65
2024/01/28 06:56:38;;;;;;;11.43;11.13;;;;;;;-141.02;100.00;93224.84;5114330;28;20200;-66
2024/01/28 06:59:05;;;;;;;11.40;11.10;;;;;;;-141.02;100.00;93224.84;5113933;28;20284;-66
2024/01/28 07:01:32;;;;;;;12.40;12.00;;;;;;;-141.02;100.00;91978.16;5114164;28;20285;-66
2024/01/28 07:03:59;;;;;;;13.40;13.00;;;;;;;-141.02;100.00;91978.16;5114149;28;20195;-66
2024/01/28 07:06:26;;;;;;;14.20;13.70;;;;;;;-141.02;100.00;91978.16;5113966;28;20280;-67
2024/01/28 07:08:53;;;;;;;14.60;14.10;;;;;;;-141.02;100.00;91728.88;5113756;28;20713;-68
2024/01/28 07:11:21;;;;;;;15.87;15.27;;;;;;;-141.02;100.00;91230.38;5114004;28;20276;-68
2024/01/28 07:13:48;;;;;;;16.10;15.50;;;;;;;-141.02;100.00;90981.13;5113903;28;20189;-68
2024/01/28 07:16:15;;;;;;;16.10;15.40;;;;;;;-141.02;100.00;90981.13;5113624;28;20200;-68
2024/01/28 07:18:42;;;;;;;17.07;16.27;;;;;;;-141.02;100.00;90731.94;5113828;28;20277;-68
2024/01/28 07:21:10;;;;;;;17.33;16.53;;;;;;;-141.02;100.00;90482.72;5113761;28;20260;-69
2024/01/28 07:23:37;;;;;;;18.30;17.40;;;;;;;-141.02;100.00;90731.94;5113760;28;20193;-71
2024/01/28 07:26:04;;;;;;;19.00;18.00;;;;;;;-141.02;100.00;89984.41;5113662;28;20634;-71
2024/01/28 07:28:34;;;;;;;18.67;17.77;;;;;;;-141.02;100.00;89735.28;5113657;28;20279;-71
2024/01/28 07:31:00;;;;;;;18.43;17.53;;;;;;;-141.02;100.00;89486.16;5113982;28;20201;-70
2024/01/28 07:33:27;;;;;;;18.67;17.77;;;;;;;-141.02;100.00;88987.97;5113539;28;20189;-70
2024/01/28 07:35:54;;;;;;;19.80;18.80;;;;;;;-141.02;100.00;89486.16;5113265;28;20229;-73
2024/01/28 07:38:21;;;;;;;19.33;18.33;;;;;;;-141.02;100.00;90233.56;5113478;28;20261;-69
2024/01/28 07:40:48;;;;;;;20.30;19.20;;;;;;;-141.02;100.00;90482.72;5113726;28;20312;-68
2024/01/28 07:43:15;;;;;;;22.57;21.23;;;;;;;-141.02;100.00;89984.41;5113407;28;20276;-68
2024/01/28 07:45:44;;;;;;;23.43;22.03;;;;;;;-141.02;100.00;89984.41;5113023;28;20315;-68
2024/01/28 07:48:11;;;;;;;22.30;20.90;;;;;;;-141.02;100.00;88738.88;5113630;28;20292;-69
2024/01/28 07:50:38;;;;;;;23.17;21.67;;;;;;;-141.02;100.00;88987.97;5113253;28;20193;-72
2024/01/28 07:53:05;;;;;;;23.77;22.27;;;;;;;-141.02;100.00;89486.16;5112950;28;20583;-73
2024/01/28 07:55:32;;;;;;;23.70;22.10;;;;;;;-141.02;100.00;89237.03;5113262;28;20651;-74
2024/01/28 07:57:59;;;;;;;19.70;18.30;;;;;;;-141.02;100.00;88987.97;5112833;28;20651;-73
2024/01/28 08:00:26;;;;;;;20.00;18.60;;;;;;;-141.02;99.16;89735.28;5113053;28;20257;-73
2024/01/28 08:02:55;;;;;;;20.37;18.87;;;;;;;-141.02;97.99;88489.84;5112714;28;20193;-72
2024/01/28 08:05:22;;;;;;;20.23;18.73;;;;;;;-141.02;97.54;87493.84;5112701;28;20189;-71
2024/01/28 08:07:49;;;;;;;21.90;20.30;;;;;;;-141.02;100.00;86995.94;5113411;28;20284;-71
2024/01/28 08:10:16;;;;;;;19.67;18.17;;;;;;;-141.02;100.00;86498.09;5113192;28;20280;-72
2024/01/28 08:12:45;;;;;;;19.17;17.77;;;;;;;-141.02;100.00;85005.03;5112573;28;20212;-71
2024/01/28 08:15:13;;;;;;;18.77;17.47;;;;;;;-141.02;100.00;84258.75;5112641;28;20221;-71
2024/01/28 08:17:40;;;;;;;17.47;16.27;;;;;;;-141.02;100.00;84507.50;5112854;28;20276;-71
2024/01/28 08:20:10;;;;;;;17.17;16.07;;;;;;;-141.02;100.00;85005.03;5112450;28;20682;-70
2024/01/28 08:22:37;;;;;;;23.00;21.60;;;;;;;-141.02;100.00;85005.03;5112792;28;20201;-71
2024/01/28 08:25:05;;;;;;;20.70;19.50;;;;;;;-141.02;100.00;85253.84;5112749;28;20204;-71
2024/01/28 08:28:03;;;;;;;20.83;19.63;;;;;;;-141.02;100.00;86000.34;5112467;28;20208;-71
2024/01/28 08:30:30;;;;;;;22.90;21.60;;;;;;;-141.02;100.00;85005.03;5112828;28;20193;-71
2024/01/28 08:32:57;;;;;;;19.70;18.60;;;;;;;-141.02;100.00;85253.84;5112415;28;20651;-70
2024/01/28 08:35:25;;;;;;;18.87;17.77;;;;;;;-141.02;100.00;84756.25;5112693;28;20275;-70
2024/01/28 08:37:52;;;;;;;17.67;16.57;;;;;;;-141.02;100.00;85502.66;5112354;28;20236;-71
2024/01/28 08:40:20;;;;;;;17.87;16.67;;;;;;;-141.02;100.00;85502.66;5112207;28;20671;-71
2024/01/28 08:42:47;;;;;;;22.10;20.60;;;;;;;-141.02;100.00;87244.88;5112375;28;20197;-71
2024/01/28 08:45:15;;;;;;;20.00;18.50;;;;;;;-141.02;100.00;87244.88;5112272;28;20655;-72
2024/01/28 08:47:41;;;;;;;20.00;18.50;;;;;;;-141.02;99.87;87244.88;5116656;28;20300;-72
2024/01/28 08:50:09;;;;;;;21.20;19.70;;;;;;;-141.02;100.00;86995.94;5116432;28;20677;-72
2024/01/28 08:52:37;;;;;;;22.87;21.27;;;;;;;-141.02;100.00;87493.84;5116365;28;20212;-72
2024/01/28 08:55:05;;;;;;;19.73;18.23;;;;;;;-141.02;100.00;86000.34;5116671;28;20199;-73
2024/01/28 08:57:32;;;;;;;20.00;18.50;;;;;;;-141.02;100.00;85751.50;5116635;28;20280;-74
2024/01/28 08:59:59;;;;;;;21.93;20.43;;;;;;;-141.02;100.00;86747.00;5116580;28;20232;-75
2024/01/28 09:02:26;;;;;;;20.50;19.00;;;;;;;-141.02;100.00;86000.34;5116160;28;20324;-75
2024/01/28 09:04:53;;;;;;;19.30;17.90;;;;;;;-141.02;100.00;86249.22;5116126;28;20199;-76
2024/01/28 09:07:20;;;;;;;19.17;17.67;;;;;;;-141.02;100.00;86995.94;5116127;28;20280;-76
2024/01/28 09:09:48;;;;;;;21.67;20.07;;;;;;;-141.02;100.00;87991.81;5116367;28;20276;-78
2024/01/28 09:12:15;;;;;;;26.00;24.10;;;;;;;-141.02;98.64;87244.88;5116354;28;20276;-79
2024/01/28 09:14:42;;;;;;;21.10;19.40;;;;;;;-141.02;99.10;87742.81;5116338;28;20225;-79
2024/01/28 09:17:09;;;;;;;21.17;19.47;;;;;;;-141.02;97.82;87493.84;5116344;28;20276;-79
2024/01/28 09:19:36;;;;;;;21.00;19.30;;;;;;;-141.02;96.38;87244.88;5116285;28;20243;-79
2024/01/28 09:22:05;;;;;;;20.37;18.77;;;;;;;-141.02;99.96;85751.50;5115725;28;20233;-78
2024/01/28 09:24:32;;;;;;;19.83;18.23;;;;;;;-141.02;100.00;85502.66;5116151;28;20197;-78
2024/01/28 09:27:01;;;;;;;19.83;18.33;;;;;;;-141.02;100.00;85751.50;5116079;28;20292;-78
2024/01/28 09:29:30;;;;;;;19.80;18.30;;;;;;;-141.02;100.00;85502.66;5115755;28;20577;-78
2024/01/28 09:31:59;;;;;;;20.10;18.60;;;;;;;-141.02;100.00;86000.34;5115594;28;20197;-77
2024/01/28 09:34:28;;;;;;;21.17;19.47;;;;;;;-141.02;99.33;86000.34;5115862;28;20193;-78
2024/01/28 09:36:55;;;;;;;22.23;20.63;;;;;;;-141.02;99.65;85502.66;5115537;28;20624;-77
2024/01/28 09:39:22;;;;;;;21.47;19.87;;;;;;;-141.02;100.00;85502.66;5115447;28;20672;-76
2024/01/28 09:41:56;;;;;;;20.80;19.30;;;;;;;-141.02;100.00;85502.66;5115351;28;20312;-77
2024/01/28 09:44:24;;;;;;;20.17;18.57;;;;;;;-141.02;100.00;85502.66;5115284;28;20692;-77
2024/01/28 09:46:52;;;;;;;20.00;18.40;;;;;;;-141.02;100.00;86000.34;5115773;28;20221;-76
2024/01/28 09:49:21;;;;;;;19.67;18.17;;;;;;;-141.02;100.00;86000.34;5115261;28;20283;-76
2024/01/28 09:51:48;;;;;;;20.10;18.50;;;;;;;-141.02;100.00;86249.22;5115866;28;20280;-76
2024/01/28 09:54:14;;;;;;;20.20;18.60;;;;;;;-141.02;100.00;85751.50;5115287;28;20207;-76
2024/01/28 09:56:42;;;;;;;20.60;19.00;;;;;;;-141.02;100.00;86747.00;5114983;28;20701;-75
2024/01/28 09:59:10;;;;;;;20.90;19.30;;;;;;;-141.02;100.00;86995.94;5114239;28;20647;-76
2024/01/28 10:01:41;;;;;;;21.00;19.30;;;;;;;-141.02;100.00;86995.94;5114954;28;20228;-75
2024/01/28 10:04:10;;;;;;;20.97;19.30;;;;;;;-141.02;100.00;86747.00;5115046;28;20648;-75
2024/01/28 10:06:37;;;;;;;25.67;23.77;;;;;;;-141.02;100.00;86249.22;5115289;28;20193;-74
2024/01/28 10:09:05;;;;;;;27.30;25.30;;;;;;;-141.02;99.35;86249.22;5115306;28;20197;-74
2024/01/28 10:11:33;;;;;;;21.37;19.67;;;;;;;-141.02;100.00;86249.22;5114913;28;20193;-74
2024/01/28 10:13:59;;;;;;;21.70;20.00;;;;;;;-141.02;100.00;86249.22;5115108;28;20197;-74
2024/01/28 10:16:47;;;;;;;20.43;18.83;;;;;;;-141.02;100.00;87244.88;5115110;28;20200;-74
2024/01/28 10:19:14;;;;;;;20.90;19.20;;;;;;;-141.02;100.00;87493.84;5115114;28;20220;-75
2024/01/28 10:21:42;;;;;;;22.70;20.80;;;;;;;-141.02;98.88;86498.09;5114965;28;20236;-74
2024/01/28 10:24:10;;;;;;;22.67;20.87;;;;;;;-141.02;100.00;86249.22;5114925;28;20194;-75
2024/01/28 10:26:37;;;;;;;22.23;20.43;;;;;;;-141.02;99.90;86498.09;5114661;28;20197;-74
2024/01/28 10:29:06;;;;;;;21.37;19.67;;;;;;;-141.02;100.00;86000.34;5114478;28;20194;-75
2024/01/28 10:31:34;;;;;;;25.30;23.40;;;;;;;-141.02;100.00;86995.94;5114544;28;20254;-75
2024/01/28 10:34:02;;;;;;;27.67;25.67;;;;;;;-141.02;100.00;86995.94;5114443;28;20583;-75
2024/01/28 10:36:32;;;;;;;21.27;19.60;;;;;;;-141.02;100.00;86995.94;5114460;28;20201;-75
2024/01/28 10:39:03;;;;;;;22.30;20.60;;;;;;;-141.02;99.37;86995.94;5114478;28;20666;-75
2024/01/28 10:41:32;;;;;;;23.43;21.73;;;;;;;-141.02;100.00;87493.84;5114611;28;20248;-76
2024/01/28 10:44:03;;;;;;;23.47;21.67;;;;;;;-141.02;100.00;87742.81;5114099;28;20571;-76
2024/01/28 10:46:35;;;;;;;23.17;21.37;;;;;;;-141.02;98.38;86747.00;5114280;28;20276;-76
2024/01/28 10:49:26;;;;;;;22.43;20.63;;;;;;;-141.02;98.73;86249.22;5114630;28;20220;-76
2024/01/28 10:51:57;;;;;;;22.13;20.33;;;;;;;-141.02;99.59;86995.94;5114112;28;20227;-76
2024/01/28 10:54:33;;;;;;;22.93;21.07;;;;;;;-141.02;100.00;87244.88;5114338;28;20181;-76
2024/01/28 10:57:04;;;;;;;22.27;20.47;;;;;;;-141.02;98.34;87244.88;5114015;28;20603;-76
2024/01/28 10:59:33;;;;;;;22.67;20.87;;;;;;;-141.02;98.93;87244.88;5114044;28;20302;-76
2024/01/28 11:02:00;;;;;;;22.10;20.40;;;;;;;-141.02;98.94;86498.09;5113900;28;20267;-76
2024/01/28 11:04:28;;;;;;;26.87;24.87;;;;;;;-141.02;100.00;86747.00;5114202;28;20276;-76
2024/01/28 11:06:55;;;;;;;24.73;22.83;;;;;;;-141.02;100.00;87493.84;5114150;28;20284;-75
2024/01/28 11:09:23;;;;;;;21.60;19.90;;;;;;;-141.02;99.03;87493.84;5113527;28;20204;-76